sensor_id;sensor_type;location;lat;lon;timestamp;pressure;altitude;pressure_sealevel;temperature;humidity
46430;BME280;32131;53.454;-6.180;2023-08-01T00:02:03;99962.56;;;13.71;96.66
46430;BME280;32131;53.454;-6.180;2023-08-01T00:04:37;99956.50;;;13.68;97.42
46430;BME280;32131;53.454;-6.180;2023-08-01T00:07:10;99958.28;;;13.66;97.46
46430;BME280;32131;53.454;-6.180;2023-08-01T00:09:39;99965.19;;;13.66;98.19
46430;BME280;32131;53.454;-6.180;2023-08-01T00:12:10;99972.97;;;13.66;98.58
46430;BME280;32131;53.454;-6.180;2023-08-01T00:14:39;99975.59;;;13.64;98.98
46430;BME280;32131;53.454;-6.180;2023-08-01T00:17:09;99964.38;;;13.64;99.00
46430;BME280;32131;53.454;-6.180;2023-08-01T00:19:38;99972.16;;;13.62;99.37
46430;BME280;32131;53.454;-6.180;2023-08-01T00:22:06;99974.75;;;13.61;99.37
46430;BME280;32131;53.454;-6.180;2023-08-01T00:24:35;99979.13;;;13.57;99.59
46430;BME280;32131;53.454;-6.180;2023-08-01T00:27:05;99984.28;;;13.59;99.71
46430;BME280;32131;53.454;-6.180;2023-08-01T00:29:37;99991.22;;;13.57;99.78
46430;BME280;32131;53.454;-6.180;2023-08-01T00:32:07;99997.28;;;13.56;99.80
46430;BME280;32131;53.454;-6.180;2023-08-01T00:34:36;99999.81;;;13.60;99.76
46430;BME280;32131;53.454;-6.180;2023-08-01T00:37:05;99995.50;;;13.64;99.38
46430;BME280;32131;53.454;-6.180;2023-08-01T00:39:33;100004.13;;;13.64;99.41
46430;BME280;32131;53.454;-6.180;2023-08-01T00:42:05;100005.00;;;13.63;99.35
46430;BME280;32131;53.454;-6.180;2023-08-01T00:44:39;100000.72;;;13.59;99.49
46430;BME280;32131;53.454;-6.180;2023-08-01T00:47:08;99998.13;;;13.58;99.69
46430;BME280;32131;53.454;-6.180;2023-08-01T00:49:37;99995.56;;;13.56;99.53
46430;BME280;32131;53.454;-6.180;2023-08-01T00:52:09;99997.31;;;13.52;99.55
46430;BME280;32131;53.454;-6.180;2023-08-01T00:54:40;99997.34;;;13.51;99.85
46430;BME280;32131;53.454;-6.180;2023-08-01T00:57:09;99993.88;;;13.50;99.69
46430;BME280;32131;53.454;-6.180;2023-08-01T00:59:43;99997.34;;;13.48;99.78
46430;BME280;32131;53.454;-6.180;2023-08-01T01:02:20;99999.09;;;13.44;99.71
46430;BME280;32131;53.454;-6.180;2023-08-01T01:04:52;100004.28;;;13.44;99.66
46430;BME280;32131;53.454;-6.180;2023-08-01T01:07:22;99996.50;;;13.44;99.62
46430;BME280;32131;53.454;-6.180;2023-08-01T01:09:54;100000.78;;;13.48;99.47
46430;BME280;32131;53.454;-6.180;2023-08-01T01:12:23;100002.50;;;13.56;99.06
46430;BME280;32131;53.454;-6.180;2023-08-01T01:14:55;100006.75;;;13.60;98.79
46430;BME280;32131;53.454;-6.180;2023-08-01T01:17:29;100003.28;;;13.64;98.50
46430;BME280;32131;53.454;-6.180;2023-08-01T01:19:59;100004.97;;;13.66;98.23
46430;BME280;32131;53.454;-6.180;2023-08-01T01:22:30;100000.63;;;13.70;98.07
46430;BME280;32131;53.454;-6.180;2023-08-01T01:25:01;100004.06;;;13.72;97.98
46430;BME280;32131;53.454;-6.180;2023-08-01T01:27:31;99995.38;;;13.73;97.86
46430;BME280;32131;53.454;-6.180;2023-08-01T01:30:02;99993.72;;;13.69;97.78
46430;BME280;32131;53.454;-6.180;2023-08-01T01:32:31;99989.41;;;13.66;97.90
46430;BME280;32131;53.454;-6.180;2023-08-01T01:35:01;99989.41;;;13.65;98.12
46430;BME280;32131;53.454;-6.180;2023-08-01T01:37:32;99981.66;;;13.62;98.35
46430;BME280;32131;53.454;-6.180;2023-08-01T01:40:01;99979.97;;;13.59;98.50
46430;BME280;32131;53.454;-6.180;2023-08-01T01:42:38;99980.84;;;13.58;98.74
46430;BME280;32131;53.454;-6.180;2023-08-01T01:45:12;99976.56;;;13.56;98.84
46430;BME280;32131;53.454;-6.180;2023-08-01T01:47:40;99978.28;;;13.54;98.75
46430;BME280;32131;53.454;-6.180;2023-08-01T01:50:09;99971.44;;;13.46;99.17
46430;BME280;32131;53.454;-6.180;2023-08-01T01:52:43;99965.41;;;13.41;99.63
46430;BME280;32131;53.454;-6.180;2023-08-01T01:55:13;99977.53;;;13.36;99.78
46430;BME280;32131;53.454;-6.180;2023-08-01T01:57:42;99977.56;;;13.33;100.00
46430;BME280;32131;53.454;-6.180;2023-08-01T02:00:12;99972.41;;;13.30;100.00
46430;BME280;32131;53.454;-6.180;2023-08-01T02:02:40;99959.47;;;13.25;100.00
46430;BME280;32131;53.454;-6.180;2023-08-01T02:05:09;99966.41;;;13.23;100.00
46430;BME280;32131;53.454;-6.180;2023-08-01T02:07:39;99958.66;;;13.18;100.00
46430;BME280;32131;53.454;-6.180;2023-08-01T02:10:09;99950.03;;;13.16;100.00
46430;BME280;32131;53.454;-6.180;2023-08-01T02:12:40;99965.59;;;13.15;100.00
46430;BME280;32131;53.454;-6.180;2023-08-01T02:15:09;99963.88;;;13.14;100.00
46430;BME280;32131;53.454;-6.180;2023-08-01T02:17:38;99954.41;;;13.11;100.00
46430;BME280;32131;53.454;-6.180;2023-08-01T02:20:10;99955.25;;;13.12;100.00
46430;BME280;32131;53.454;-6.180;2023-08-01T02:22:42;99962.19;;;13.11;100.00
46430;BME280;32131;53.454;-6.180;2023-08-01T02:25:12;99969.97;;;13.08;100.00
46430;BME280;32131;53.454;-6.180;2023-08-01T02:27:43;99969.13;;;13.08;100.00
46430;BME280;32131;53.454;-6.180;2023-08-01T02:30:15;99970.00;;;13.05;100.00
46430;BME280;32131;53.454;-6.180;2023-08-01T02:32:47;99976.91;;;13.03;100.00
46430;BME280;32131;53.454;-6.180;2023-08-01T02:35:23;99976.94;;;13.00;100.00
46430;BME280;32131;53.454;-6.180;2023-08-01T02:38:10;99980.38;;;12.99;100.00
46430;BME280;32131;53.454;-6.180;2023-08-01T02:40:40;99975.25;;;12.96;100.00
46430;BME280;32131;53.454;-6.180;2023-08-01T02:43:10;99981.28;;;12.93;100.00
46430;BME280;32131;53.454;-6.180;2023-08-01T02:45:38;99977.88;;;12.91;100.00
46430;BME280;32131;53.454;-6.180;2023-08-01T02:48:10;99970.06;;;12.89;100.00
46430;BME280;32131;53.454;-6.180;2023-08-01T02:50:40;99977.03;;;12.87;100.00
46430;BME280;32131;53.454;-6.180;2023-08-01T02:53:23;99975.31;;;12.83;100.00
46430;BME280;32131;53.454;-6.180;2023-08-01T02:55:54;99971.84;;;12.81;100.00
46430;BME280;32131;53.454;-6.180;2023-08-01T02:58:22;99970.13;;;12.80;100.00
46430;BME280;32131;53.454;-6.180;2023-08-01T03:00:51;99971.91;;;12.78;100.00
46430;BME280;32131;53.454;-6.180;2023-08-01T03:03:19;99969.31;;;12.75;100.00
46430;BME280;32131;53.454;-6.180;2023-08-01T03:05:53;99978.81;;;12.73;100.00
46430;BME280;32131;53.454;-6.180;2023-08-01T03:08:28;99981.41;;;12.73;100.00
46430;BME280;32131;53.454;-6.180;2023-08-01T03:10:58;99989.16;;;12.73;100.00
46430;BME280;32131;53.454;-6.180;2023-08-01T03:13:27;99981.44;;;12.68;100.00
46430;BME280;32131;53.454;-6.180;2023-08-01T03:15:57;99982.31;;;12.69;100.00
46430;BME280;32131;53.454;-6.180;2023-08-01T03:18:25;99983.16;;;12.69;100.00
46430;BME280;32131;53.454;-6.180;2023-08-01T03:20:53;99994.38;;;12.67;100.00
46430;BME280;32131;53.454;-6.180;2023-08-01T03:23:22;99988.34;;;12.65;100.00
46430;BME280;32131;53.454;-6.180;2023-08-01T03:25:52;99985.78;;;12.62;100.00
46430;BME280;32131;53.454;-6.180;2023-08-01T03:28:20;99984.09;;;12.59;100.00
46430;BME280;32131;53.454;-6.180;2023-08-01T03:30:50;99978.91;;;12.57;100.00
46430;BME280;32131;53.454;-6.180;2023-08-01T03:33:20;99984.06;;;12.57;100.00
46430;BME280;32131;53.454;-6.180;2023-08-01T03:35:49;99983.22;;;12.55;100.00
46430;BME280;32131;53.454;-6.180;2023-08-01T03:38:18;99991.88;;;12.56;100.00
46430;BME280;32131;53.454;-6.180;2023-08-01T03:40:52;99972.84;;;12.55;100.00
46430;BME280;32131;53.454;-6.180;2023-08-01T03:43:21;99975.47;;;12.52;100.00
46430;BME280;32131;53.454;-6.180;2023-08-01T03:45:51;99985.84;;;12.49;100.00
46430;BME280;32131;53.454;-6.180;2023-08-01T03:48:23;99978.94;;;12.47;100.00
46430;BME280;32131;53.454;-6.180;2023-08-01T03:50:53;99974.63;;;12.46;100.00
46430;BME280;32131;53.454;-6.180;2023-08-01T03:53:22;99969.47;;;12.44;100.00
46430;BME280;32131;53.454;-6.180;2023-08-01T03:55:53;99969.47;;;12.44;100.00
46430;BME280;32131;53.454;-6.180;2023-08-01T03:58:27;99977.25;;;12.44;100.00
46430;BME280;32131;53.454;-6.180;2023-08-01T04:00:56;99977.22;;;12.46;100.00
46430;BME280;32131;53.454;-6.180;2023-08-01T04:03:31;99973.78;;;12.47;100.00
46430;BME280;32131;53.454;-6.180;2023-08-01T04:05:59;99974.63;;;12.49;100.00
46430;BME280;32131;53.454;-6.180;2023-08-01T04:08:28;99974.63;;;12.49;100.00
46430;BME280;32131;53.454;-6.180;2023-08-01T04:10:58;99981.53;;;12.48;100.00
46430;BME280;32131;53.454;-6.180;2023-08-01T04:13:28;99978.94;;;12.48;100.00
46430;BME280;32131;53.454;-6.180;2023-08-01T04:15:56;99983.22;;;12.51;100.00
46430;BME280;32131;53.454;-6.180;2023-08-01T04:18:24;99991.00;;;12.52;100.00
46430;BME280;32131;53.454;-6.180;2023-08-01T04:20:53;99997.91;;;12.50;100.00
46430;BME280;32131;53.454;-6.180;2023-08-01T04:23:21;100000.50;;;12.50;100.00
46430;BME280;32131;53.454;-6.180;2023-08-01T04:25:53;99991.88;;;12.48;100.00
46430;BME280;32131;53.454;-6.180;2023-08-01T04:28:24;99993.63;;;12.48;100.00
46430;BME280;32131;53.454;-6.180;2023-08-01T04:30:53;100004.84;;;12.47;100.00
46430;BME280;32131;53.454;-6.180;2023-08-01T04:33:22;100004.84;;;12.47;100.00
46430;BME280;32131;53.454;-6.180;2023-08-01T04:35:51;99996.22;;;12.46;100.00
46430;BME280;32131;53.454;-6.180;2023-08-01T04:38:23;99997.91;;;12.47;100.00
46430;BME280;32131;53.454;-6.180;2023-08-01T04:40:51;100010.88;;;12.47;100.00
46430;BME280;32131;53.454;-6.180;2023-08-01T04:43:26;100010.88;;;12.47;100.00
46430;BME280;32131;53.454;-6.180;2023-08-01T04:45:55;100013.47;;;12.47;100.00
46430;BME280;32131;53.454;-6.180;2023-08-01T04:48:24;100012.63;;;12.47;100.00
46430;BME280;32131;53.454;-6.180;2023-08-01T04:50:52;100012.63;;;12.45;100.00
46430;BME280;32131;53.454;-6.180;2023-08-01T04:53:22;100015.22;;;12.45;100.00
46430;BME280;32131;53.454;-6.180;2023-08-01T04:55:54;100024.72;;;12.46;100.00
46430;BME280;32131;53.454;-6.180;2023-08-01T04:58:24;100023.81;;;12.47;100.00
46430;BME280;32131;53.454;-6.180;2023-08-01T05:00:53;100025.53;;;12.48;100.00
46430;BME280;32131;53.454;-6.180;2023-08-01T05:03:21;100034.16;;;12.50;100.00
46430;BME280;32131;53.454;-6.180;2023-08-01T05:05:55;100036.75;;;12.53;100.00
46430;BME280;32131;53.454;-6.180;2023-08-01T05:08:28;100044.47;;;12.64;100.00
46430;BME280;32131;53.454;-6.180;2023-08-01T05:10:59;100052.19;;;12.75;100.00
46430;BME280;32131;53.454;-6.180;2023-08-01T05:13:30;100046.97;;;12.84;100.00
46430;BME280;32131;53.454;-6.180;2023-08-01T05:15:59;100054.69;;;12.95;100.00
46430;BME280;32131;53.454;-6.180;2023-08-01T05:18:32;100049.50;;;13.00;100.00
46430;BME280;32131;53.454;-6.180;2023-08-01T05:21:02;100050.38;;;13.00;100.00
46430;BME280;32131;53.454;-6.180;2023-08-01T05:23:36;100043.41;;;13.02;100.00
46430;BME280;32131;53.454;-6.180;2023-08-01T05:26:05;100052.03;;;13.08;100.00
46430;BME280;32131;53.454;-6.180;2023-08-01T05:28:39;100045.13;;;13.11;100.00
46430;BME280;32131;53.454;-6.180;2023-08-01T05:31:10;100052.84;;;13.17;100.00
46430;BME280;32131;53.454;-6.180;2023-08-01T05:33:39;100049.31;;;13.28;100.00
46430;BME280;32131;53.454;-6.180;2023-08-01T05:36:09;100054.47;;;13.34;100.00
46430;BME280;32131;53.454;-6.180;2023-08-01T05:38:42;100051.84;;;13.40;100.00
46430;BME280;32131;53.454;-6.180;2023-08-01T05:41:12;100054.41;;;13.46;100.00
46430;BME280;32131;53.454;-6.180;2023-08-01T05:43:42;100056.09;;;13.54;100.00
46430;BME280;32131;53.454;-6.180;2023-08-01T05:46:12;100066.41;;;13.60;100.00
46430;BME280;32131;53.454;-6.180;2023-08-01T05:48:40;100063.78;;;13.64;100.00
46430;BME280;32131;53.454;-6.180;2023-08-01T05:51:13;100052.56;;;13.64;100.00
46430;BME280;32131;53.454;-6.180;2023-08-01T05:53:43;100057.63;;;13.76;100.00
46430;BME280;32131;53.454;-6.180;2023-08-01T05:56:12;100055.75;;;13.94;98.92
46430;BME280;32131;53.454;-6.180;2023-08-01T05:58:43;100047.03;;;14.01;98.22
46430;BME280;32131;53.454;-6.180;2023-08-01T06:01:12;100040.94;;;14.04;97.84
46430;BME280;32131;53.454;-6.180;2023-08-01T06:03:44;100038.38;;;13.99;97.52
46430;BME280;32131;53.454;-6.180;2023-08-01T06:06:14;100039.31;;;13.95;97.47
46430;BME280;32131;53.454;-6.180;2023-08-01T06:08:48;100041.91;;;13.95;97.75
46430;BME280;32131;53.454;-6.180;2023-08-01T06:11:19;100031.53;;;13.92;97.57
46430;BME280;32131;53.454;-6.180;2023-08-01T06:13:53;100028.06;;;13.94;97.76
46430;BME280;32131;53.454;-6.180;2023-08-01T06:16:22;100034.88;;;14.05;97.32
46430;BME280;32131;53.454;-6.180;2023-08-01T06:18:53;100034.72;;;14.20;96.66
46430;BME280;32131;53.454;-6.180;2023-08-01T06:21:31;100036.22;;;14.41;95.59
46430;BME280;32131;53.454;-6.180;2023-08-01T06:24:08;100030.97;;;14.46;94.71
46430;BME280;32131;53.454;-6.180;2023-08-01T06:26:37;100029.25;;;14.45;94.29
46430;BME280;32131;53.454;-6.180;2023-08-01T06:29:08;100036.03;;;14.58;93.93
46430;BME280;32131;53.454;-6.180;2023-08-01T06:31:37;100036.81;;;14.63;93.09
46430;BME280;32131;53.454;-6.180;2023-08-01T06:34:05;100042.00;;;14.63;93.26
46430;BME280;32131;53.454;-6.180;2023-08-01T06:36:35;100042.88;;;14.67;93.04
46430;BME280;32131;53.454;-6.180;2023-08-01T06:39:04;100043.72;;;14.69;93.10
46430;BME280;32131;53.454;-6.180;2023-08-01T06:41:35;100039.38;;;14.65;92.61
46430;BME280;32131;53.454;-6.180;2023-08-01T06:44:04;100038.69;;;14.54;92.64
46430;BME280;32131;53.454;-6.180;2023-08-01T06:46:34;100043.94;;;14.49;92.98
46430;BME280;32131;53.454;-6.180;2023-08-01T06:49:02;100049.00;;;14.60;92.62
46430;BME280;32131;53.454;-6.180;2023-08-01T06:51:31;100043.81;;;14.57;92.68
46430;BME280;32131;53.454;-6.180;2023-08-01T06:54:00;100035.94;;;14.66;92.32
46430;BME280;32131;53.454;-6.180;2023-08-01T06:56:28;100041.97;;;14.71;92.05
46430;BME280;32131;53.454;-6.180;2023-08-01T06:58:56;100038.47;;;14.74;91.67
46430;BME280;32131;53.454;-6.180;2023-08-01T07:01:25;100044.63;;;14.67;91.62
46430;BME280;32131;53.454;-6.180;2023-08-01T07:03:55;100042.88;;;14.64;92.28
46430;BME280;32131;53.454;-6.180;2023-08-01T07:06:23;100035.09;;;14.62;92.24
46430;BME280;32131;53.454;-6.180;2023-08-01T07:08:51;100041.97;;;14.65;92.30
46430;BME280;32131;53.454;-6.180;2023-08-01T07:11:19;100037.63;;;14.70;92.43
46430;BME280;32131;53.454;-6.180;2023-08-01T07:13:48;100040.16;;;14.76;92.18
46430;BME280;32131;53.454;-6.180;2023-08-01T07:16:16;100034.09;;;14.74;91.98
46430;BME280;32131;53.454;-6.180;2023-08-01T07:18:44;100049.66;;;14.77;91.80
46430;BME280;32131;53.454;-6.180;2023-08-01T07:21:16;100051.38;;;14.80;91.75
46430;BME280;32131;53.454;-6.180;2023-08-01T07:23:45;100052.94;;;14.92;91.59
46430;BME280;32131;53.454;-6.180;2023-08-01T07:26:15;100046.72;;;15.04;90.99
46430;BME280;32131;53.454;-6.180;2023-08-01T07:28:43;100050.09;;;15.11;90.77
46430;BME280;32131;53.454;-6.180;2023-08-01T07:31:16;100051.78;;;15.15;90.17
46430;BME280;32131;53.454;-6.180;2023-08-01T07:33:52;100049.13;;;15.18;89.90
46430;BME280;32131;53.454;-6.180;2023-08-01T07:36:24;100051.69;;;15.19;89.67
46430;BME280;32131;53.454;-6.180;2023-08-01T07:38:53;100048.25;;;15.19;89.82
46430;BME280;32131;53.454;-6.180;2023-08-01T07:41:23;100044.66;;;15.28;90.02
46430;BME280;32131;53.454;-6.180;2023-08-01T07:43:51;100057.53;;;15.35;89.30
46430;BME280;32131;53.454;-6.180;2023-08-01T07:46:19;100051.34;;;15.43;88.92
46430;BME280;32131;53.454;-6.180;2023-08-01T07:48:48;100051.97;;;15.59;87.80
46430;BME280;32131;53.454;-6.180;2023-08-01T07:51:16;100038.88;;;15.63;87.68
46430;BME280;32131;53.454;-6.180;2023-08-01T07:53:45;100049.91;;;15.78;86.59
46430;BME280;32131;53.454;-6.180;2023-08-01T07:56:14;100054.72;;;16.02;85.68
46430;BME280;32131;53.454;-6.180;2023-08-01T07:58:46;100056.88;;;16.27;83.76
46430;BME280;32131;53.454;-6.180;2023-08-01T08:01:15;100053.03;;;16.47;82.27
46430;BME280;32131;53.454;-6.180;2023-08-01T08:03:43;100050.25;;;16.56;81.62
46430;BME280;32131;53.454;-6.180;2023-08-01T08:06:12;100053.19;;;16.39;81.12
46430;BME280;32131;53.454;-6.180;2023-08-01T08:08:40;100047.25;;;16.31;81.20
46430;BME280;32131;53.454;-6.180;2023-08-01T08:11:10;100044.09;;;16.15;81.20
46430;BME280;32131;53.454;-6.180;2023-08-01T08:13:40;100049.41;;;16.10;81.92
46430;BME280;32131;53.454;-6.180;2023-08-01T08:16:08;100037.34;;;16.05;82.09
46430;BME280;32131;53.454;-6.180;2023-08-01T08:18:37;100040.78;;;16.07;82.39
46430;BME280;32131;53.454;-6.180;2023-08-01T08:21:05;100045.06;;;16.08;82.00
46430;BME280;32131;53.454;-6.180;2023-08-01T08:23:33;100052.81;;;16.12;81.06
46430;BME280;32131;53.454;-6.180;2023-08-01T08:26:02;100057.09;;;16.16;81.12
46430;BME280;32131;53.454;-6.180;2023-08-01T08:28:34;100038.69;;;16.26;81.04
46430;BME280;32131;53.454;-6.180;2023-08-01T08:31:02;100047.59;;;16.58;80.85
46430;BME280;32131;53.454;-6.180;2023-08-01T08:33:31;100044.34;;;18.65;75.33
46430;BME280;32131;53.454;-6.180;2023-08-01T08:36:00;100025.16;;;20.76;68.33
46430;BME280;32131;53.454;-6.180;2023-08-01T08:38:31;100033.94;;;22.47;61.79
46430;BME280;32131;53.454;-6.180;2023-08-01T08:41:07;100017.38;;;23.91;57.78
46430;BME280;32131;53.454;-6.180;2023-08-01T08:43:39;100013.25;;;25.02;52.67
46430;BME280;32131;53.454;-6.180;2023-08-01T08:46:09;100024.75;;;25.78;49.79
46430;BME280;32131;53.454;-6.180;2023-08-01T08:48:40;100017.09;;;26.33;46.65
46430;BME280;32131;53.454;-6.180;2023-08-01T08:51:12;100005.59;;;26.90;45.28
46430;BME280;32131;53.454;-6.180;2023-08-01T08:53:45;100006.03;;;27.65;45.10
46430;BME280;32131;53.454;-6.180;2023-08-01T08:56:15;100013.91;;;28.31;43.21
46430;BME280;32131;53.454;-6.180;2023-08-01T08:58:46;100005.81;;;27.93;43.18
46430;BME280;32131;53.454;-6.180;2023-08-01T09:01:17;100015.66;;;27.53;43.84
46430;BME280;32131;53.454;-6.180;2023-08-01T09:03:49;100023.56;;;26.85;44.22
46430;BME280;32131;53.454;-6.180;2023-08-01T09:06:24;100018.09;;;26.59;43.73
46430;BME280;32131;53.454;-6.180;2023-08-01T09:08:58;100021.72;;;25.70;45.12
46430;BME280;32131;53.454;-6.180;2023-08-01T09:11:39;100016.03;;;24.17;46.91
46430;BME280;32131;53.454;-6.180;2023-08-01T09:14:18;100017.28;;;24.44;46.73
46430;BME280;32131;53.454;-6.180;2023-08-01T09:16:49;100011.63;;;24.84;46.28
46430;BME280;32131;53.454;-6.180;2023-08-01T09:19:20;100004.38;;;24.87;45.89
46430;BME280;32131;53.454;-6.180;2023-08-01T09:21:49;100006.63;;;23.96;48.02
46430;BME280;32131;53.454;-6.180;2023-08-01T09:24:20;99999.19;;;23.15;49.62
46430;BME280;32131;53.454;-6.180;2023-08-01T09:26:50;100002.09;;;22.53;50.94
46430;BME280;32131;53.454;-6.180;2023-08-01T09:29:21;100016.69;;;21.99;52.02
46430;BME280;32131;53.454;-6.180;2023-08-01T09:31:49;100010.16;;;21.69;53.15
46430;BME280;32131;53.454;-6.180;2023-08-01T09:34:19;100010.63;;;21.56;53.53
46430;BME280;32131;53.454;-6.180;2023-08-01T09:36:48;100012.72;;;21.48;53.82
46430;BME280;32131;53.454;-6.180;2023-08-01T09:39:17;100017.06;;;21.04;54.94
46430;BME280;32131;53.454;-6.180;2023-08-01T09:41:46;100020.63;;;20.81;55.52
46430;BME280;32131;53.454;-6.180;2023-08-01T09:44:16;100022.63;;;20.49;56.29
46430;BME280;32131;53.454;-6.180;2023-08-01T09:46:55;100024.41;;;20.49;56.22
46430;BME280;32131;53.454;-6.180;2023-08-01T09:49:23;100015.50;;;21.00;55.35
46430;BME280;32131;53.454;-6.180;2023-08-01T09:51:52;100018.16;;;20.77;55.50
46430;BME280;32131;53.454;-6.180;2023-08-01T09:54:22;100021.19;;;20.89;55.92
46430;BME280;32131;53.454;-6.180;2023-08-01T09:56:52;100022.28;;;21.71;53.80
46430;BME280;32131;53.454;-6.180;2023-08-01T09:59:23;100020.63;;;21.89;52.85
46430;BME280;32131;53.454;-6.180;2023-08-01T10:01:54;100002.59;;;21.61;53.55
46430;BME280;32131;53.454;-6.180;2023-08-01T10:04:26;100006.19;;;21.36;54.63
46430;BME280;32131;53.454;-6.180;2023-08-01T10:06:58;100003.13;;;21.04;55.03
46430;BME280;32131;53.454;-6.180;2023-08-01T10:09:30;100010.06;;;20.83;56.01
46430;BME280;32131;53.454;-6.180;2023-08-01T10:11:59;100002.44;;;20.77;55.04
46430;BME280;32131;53.454;-6.180;2023-08-01T10:14:28;100003.38;;;20.98;54.56
46430;BME280;32131;53.454;-6.180;2023-08-01T10:17:11;99998.16;;;21.18;54.30
46430;BME280;32131;53.454;-6.180;2023-08-01T10:19:55;100004.19;;;20.98;54.62
46430;BME280;32131;53.454;-6.180;2023-08-01T10:22:26;100009.34;;;20.78;55.45
46430;BME280;32131;53.454;-6.180;2023-08-01T10:24:55;100020.19;;;20.68;55.42
46430;BME280;32131;53.454;-6.180;2023-08-01T10:27:28;100019.09;;;20.76;55.82
46430;BME280;32131;53.454;-6.180;2023-08-01T10:30:01;100020.75;;;21.00;54.87
46430;BME280;32131;53.454;-6.180;2023-08-01T10:32:34;100016.59;;;21.39;53.93
46430;BME280;32131;53.454;-6.180;2023-08-01T10:35:04;100008.56;;;21.64;53.61
46430;BME280;32131;53.454;-6.180;2023-08-01T10:37:43;99999.06;;;21.82;53.49
46430;BME280;32131;53.454;-6.180;2023-08-01T10:40:14;99994.09;;;21.95;53.36
46430;BME280;32131;53.454;-6.180;2023-08-01T10:42:44;100001.94;;;21.97;52.77
46430;BME280;32131;53.454;-6.180;2023-08-01T10:45:19;100009.50;;;21.84;53.12
46430;BME280;32131;53.454;-6.180;2023-08-01T10:47:51;99999.78;;;21.43;53.83
46430;BME280;32131;53.454;-6.180;2023-08-01T10:50:20;100004.69;;;21.08;54.44
46430;BME280;32131;53.454;-6.180;2023-08-01T10:53:02;100005.66;;;20.83;55.02
46430;BME280;32131;53.454;-6.180;2023-08-01T10:55:44;100005.25;;;20.70;55.98
46430;BME280;32131;53.454;-6.180;2023-08-01T10:58:18;100008.78;;;20.69;56.21
46430;BME280;32131;53.454;-6.180;2023-08-01T11:00:46;100010.72;;;20.64;56.33
46430;BME280;32131;53.454;-6.180;2023-08-01T11:03:35;100017.75;;;20.64;56.25
46430;BME280;32131;53.454;-6.180;2023-08-01T11:06:07;100014.25;;;20.63;56.70
46430;BME280;32131;53.454;-6.180;2023-08-01T11:08:37;100016.06;;;20.61;56.30
46430;BME280;32131;53.454;-6.180;2023-08-01T11:11:11;100020.25;;;20.67;56.26
46430;BME280;32131;53.454;-6.180;2023-08-01T11:13:50;100022.94;;;20.65;55.45
46430;BME280;32131;53.454;-6.180;2023-08-01T11:16:18;100012.88;;;20.53;55.36
46430;BME280;32131;53.454;-6.180;2023-08-01T11:18:51;100017.22;;;20.30;55.88
46430;BME280;32131;53.454;-6.180;2023-08-01T11:21:26;100020.56;;;20.10;56.57
46430;BME280;32131;53.454;-6.180;2023-08-01T11:23:56;100011.28;;;20.01;57.23
46430;BME280;32131;53.454;-6.180;2023-08-01T11:26:25;100001.75;;;19.99;57.33
46430;BME280;32131;53.454;-6.180;2023-08-01T11:28:53;100011.88;;;20.09;57.20
46430;BME280;32131;53.454;-6.180;2023-08-01T11:31:22;100020.75;;;20.29;56.93
46430;BME280;32131;53.454;-6.180;2023-08-01T11:33:57;100014.56;;;20.55;56.77
46430;BME280;32131;53.454;-6.180;2023-08-01T11:36:26;100014.81;;;20.73;56.62
46430;BME280;32131;53.454;-6.180;2023-08-01T11:38:57;100014.41;;;20.84;56.44
46430;BME280;32131;53.454;-6.180;2023-08-01T11:41:26;100006.38;;;20.87;56.83
46430;BME280;32131;53.454;-6.180;2023-08-01T11:43:55;99999.66;;;20.80;56.80
46430;BME280;32131;53.454;-6.180;2023-08-01T11:46:30;99996.47;;;20.71;56.62
46430;BME280;32131;53.454;-6.180;2023-08-01T11:49:00;99998.41;;;20.66;57.29
46430;BME280;32131;53.454;-6.180;2023-08-01T11:51:29;99995.06;;;20.63;56.76
46430;BME280;32131;53.454;-6.180;2023-08-01T11:54:01;99999.81;;;20.77;56.23
46430;BME280;32131;53.454;-6.180;2023-08-01T11:56:30;99990.97;;;21.01;56.01
46430;BME280;32131;53.454;-6.180;2023-08-01T11:58:58;99993.88;;;21.38;55.64
46430;BME280;32131;53.454;-6.180;2023-08-01T12:01:27;99992.78;;;21.64;54.40
46430;BME280;32131;53.454;-6.180;2023-08-01T12:03:56;99985.69;;;21.87;53.87
46430;BME280;32131;53.454;-6.180;2023-08-01T12:06:31;99980.59;;;22.24;52.87
46430;BME280;32131;53.454;-6.180;2023-08-01T12:09:06;99968.81;;;22.52;51.71
46430;BME280;32131;53.454;-6.180;2023-08-01T12:11:36;99968.97;;;22.68;51.34
46430;BME280;32131;53.454;-6.180;2023-08-01T12:14:06;99949.50;;;22.89;51.52
46430;BME280;32131;53.454;-6.180;2023-08-01T12:16:36;99955.59;;;23.09;50.88
46430;BME280;32131;53.454;-6.180;2023-08-01T12:19:05;99950.00;;;23.15;50.90
46430;BME280;32131;53.454;-6.180;2023-08-01T12:21:35;99950.16;;;22.95;50.31
46430;BME280;32131;53.454;-6.180;2023-08-01T12:24:04;99941.91;;;22.83;50.43
46430;BME280;32131;53.454;-6.180;2023-08-01T12:26:32;99938.59;;;22.80;50.24
46430;BME280;32131;53.454;-6.180;2023-08-01T12:29:00;99938.16;;;22.89;50.27
46430;BME280;32131;53.454;-6.180;2023-08-01T12:31:29;99934.81;;;22.85;49.87
46430;BME280;32131;53.454;-6.180;2023-08-01T12:33:57;99934.16;;;22.80;49.81
46430;BME280;32131;53.454;-6.180;2023-08-01T12:36:25;99938.84;;;22.56;50.20
46430;BME280;32131;53.454;-6.180;2023-08-01T12:38:56;99932.91;;;22.32;50.96
46430;BME280;32131;53.454;-6.180;2023-08-01T12:41:25;99931.28;;;22.10;51.69
46430;BME280;32131;53.454;-6.180;2023-08-01T12:43:53;99937.66;;;22.04;51.83
46430;BME280;32131;53.454;-6.180;2023-08-01T12:46:21;99932.19;;;22.09;51.94
46430;BME280;32131;53.454;-6.180;2023-08-01T12:48:49;99925.09;;;22.11;51.69
46430;BME280;32131;53.454;-6.180;2023-08-01T12:51:18;99919.75;;;22.32;51.93
46430;BME280;32131;53.454;-6.180;2023-08-01T12:53:47;99910.91;;;22.53;51.37
46430;BME280;32131;53.454;-6.180;2023-08-01T12:56:17;99906.56;;;22.52;51.05
46430;BME280;32131;53.454;-6.180;2023-08-01T12:58:45;99892.19;;;22.59;51.28